Time;durP1;ratioP1;P1;durP2;ratioP2;P2;SDS_P1;SDS_P2;PMS_P1;PMS_P2;Temp;Humidity;BMP_temperature;BMP_pressure;BME280_temperature;BME280_humidity;BME280_pressure;Samples;Min_cycle;Max_cycle;Signal;HPM_P1;HPM_P2
2021/09/29 00:02:55;;;;;;;14.13;6.85;;;;;;;10.37;85.45;101167.39;1705527;84;21192;-83
2021/09/29 00:06:00;;;;;;;14.83;6.03;;;;;;;10.35;85.56;101166.69;1706314;83;21908;-82
2021/09/29 00:09:05;;;;;;;14.63;6.40;;;;;;;10.36;85.64;101168.92;1703960;84;21291;-82
2021/09/29 00:12:13;;;;;;;18.70;6.55;;;;;;;10.36;85.67;101162.94;1703910;84;21322;-82
2021/09/29 00:15:19;;;;;;;16.27;6.92;;;;;;;10.36;85.73;101164.30;1681725;84;21249;-83
2021/09/29 00:18:25;;;;;;;19.35;5.95;;;;;;;10.35;85.76;101164.44;1661753;85;21174;-82
2021/09/29 00:21:30;;;;;;;15.15;6.47;;;;;;;10.32;85.91;101162.89;1680294;85;21189;-82
2021/09/29 00:24:36;;;;;;;13.48;6.28;;;;;;;10.32;86.00;101169.72;1681251;85;21850;-79
2021/09/29 00:27:42;;;;;;;15.13;6.35;;;;;;;10.31;86.01;101162.54;1680322;85;21339;-83
2021/09/29 00:31:02;;;;;;;23.27;6.60;;;;;;;10.30;86.17;101161.31;1679672;83;21216;-79
2021/09/29 00:34:06;;;;;;;15.25;6.60;;;;;;;10.28;86.36;101163.34;1681153;85;21315;-83
2021/09/29 00:37:05;;;;;;;21.55;7.12;;;;;;;10.27;86.50;101159.76;1680593;85;21399;-79
2021/09/29 00:40:11;;;;;;;15.63;6.08;;;;;;;10.25;86.61;101160.40;1681317;85;21984;-83
2021/09/29 00:43:18;;;;;;;13.55;5.80;;;;;;;10.25;86.70;101163.13;1680957;84;21208;-82
2021/09/29 00:46:23;;;;;;;13.40;6.40;;;;;;;10.24;86.85;101170.99;1709109;84;21963;-82
2021/09/29 00:49:28;;;;;;;9.93;5.53;;;;;;;10.21;87.00;101168.55;1709450;84;21165;-82
2021/09/29 00:52:35;;;;;;;21.50;5.37;;;;;;;10.21;87.15;101163.08;1708333;84;21322;-80
2021/09/29 00:55:41;;;;;;;15.00;6.55;;;;;;;10.21;87.26;101167.19;1709351;84;21315;-80
2021/09/29 00:58:47;;;;;;;13.25;5.83;;;;;;;10.19;87.36;101163.72;1709449;84;21725;-81
2021/09/29 01:01:52;;;;;;;14.93;6.22;;;;;;;10.21;87.43;101167.19;1708642;84;21299;-79
2021/09/29 01:04:59;;;;;;;22.73;6.15;;;;;;;10.20;87.48;101167.66;1708373;82;21188;-79
2021/09/29 01:08:13;;;;;;;12.30;5.17;;;;;;;10.19;87.62;101180.98;1708482;84;21260;-80
2021/09/29 01:11:35;;;;;;;12.75;5.65;;;;;;;10.18;87.84;101175.68;1708111;84;21299;-79
2021/09/29 01:14:47;;;;;;;18.20;5.92;;;;;;;10.15;88.07;101179.56;1709505;84;21304;-79
2021/09/29 01:17:55;;;;;;;17.65;5.95;;;;;;;10.13;88.33;101176.14;1710842;82;21674;-79
2021/09/29 01:21:15;;;;;;;11.50;5.10;;;;;;;10.13;88.46;101187.58;1674555;85;21356;-82
2021/09/29 01:24:27;;;;;;;14.00;5.40;;;;;;;10.13;88.54;101182.97;1706766;84;21276;-80
2021/09/29 01:27:33;;;;;;;13.43;6.37;;;;;;;10.12;88.60;101182.63;1705928;84;21299;-82
2021/09/29 01:30:41;;;;;;;14.45;6.03;;;;;;;10.14;88.68;101178.36;1706603;84;21184;-79
2021/09/29 01:33:47;;;;;;;13.22;5.47;;;;;;;10.15;88.71;101177.34;1706763;84;21141;-82
2021/09/29 01:36:52;;;;;;;12.30;5.25;;;;;;;10.15;88.77;101174.61;1706397;84;21338;-82
2021/09/29 01:39:58;;;;;;;19.48;6.40;;;;;;;10.14;88.75;101174.27;1706982;84;21139;-82
2021/09/29 01:43:02;;;;;;;11.33;6.83;;;;;;;10.16;88.83;101172.22;1705797;84;21176;-80
2021/09/29 01:46:09;;;;;;;25.72;7.17;;;;;;;10.17;88.89;101173.45;1687111;84;21339;-79
2021/09/29 01:49:35;;;;;;;10.63;5.25;;;;;;;10.17;88.87;101174.83;1706581;84;21279;-79
2021/09/29 01:52:44;;;;;;;13.03;6.22;;;;;;;10.16;88.88;101180.42;1705882;84;21291;-82
2021/09/29 01:55:49;;;;;;;10.38;4.70;;;;;;;10.11;89.15;101179.51;1707797;83;21785;-79
2021/09/29 01:58:55;;;;;;;11.68;5.50;;;;;;;10.09;89.38;101176.08;1706434;84;21276;-79
2021/09/29 02:02:01;;;;;;;13.88;5.17;;;;;;;10.07;89.68;101189.53;1705454;84;21826;-79
2021/09/29 02:05:07;;;;;;;9.15;5.22;;;;;;;10.05;89.99;101183.38;1705606;84;21940;-82
2021/09/29 02:08:14;;;;;;;16.50;5.35;;;;;;;10.05;90.17;101192.94;1705723;84;21936;-82
2021/09/29 02:11:19;;;;;;;12.15;5.50;;;;;;;10.02;90.23;101197.33;1706592;84;21196;-79
2021/09/29 02:14:26;;;;;;;9.98;5.20;;;;;;;10.03;90.36;101194.98;1706905;84;21658;-83
2021/09/29 02:17:31;;;;;;;13.88;5.60;;;;;;;10.02;90.45;101197.33;1706607;84;21165;-82
2021/09/29 02:20:37;;;;;;;12.82;5.60;;;;;;;10.02;90.54;101198.70;1708922;82;21311;-82
2021/09/29 02:23:43;;;;;;;10.35;5.05;;;;;;;9.97;90.79;101197.30;1708136;84;21310;-79
2021/09/29 02:26:48;;;;;;;8.93;5.08;;;;;;;9.92;90.99;101196.86;1707983;84;21251;-82
2021/09/29 02:29:54;;;;;;;8.65;5.42;;;;;;;9.90;91.22;101195.31;1709331;84;21271;-79
2021/09/29 02:32:59;;;;;;;17.20;5.30;;;;;;;9.86;91.40;101200.21;1708416;84;21279;-82
2021/09/29 02:36:05;;;;;;;9.05;4.83;;;;;;;9.86;91.48;101196.11;1709461;84;21271;-82
2021/09/29 02:39:10;;;;;;;12.45;5.60;;;;;;;9.85;91.56;101203.10;1709638;84;21916;-80
2021/09/29 02:42:15;;;;;;;6.70;4.47;;;;;;;9.85;91.62;101208.06;1708881;84;21299;-80
2021/09/29 02:45:20;;;;;;;9.23;4.87;;;;;;;9.84;91.70;101211.81;1709636;84;21240;-79
2021/09/29 02:48:19;;;;;;;12.30;5.75;;;;;;;9.83;91.71;101219.63;1708555;84;21333;-81
2021/09/29 02:51:24;;;;;;;9.15;4.70;;;;;;;9.82;91.86;101215.18;1709231;84;21271;-78
2021/09/29 02:54:29;;;;;;;8.35;4.25;;;;;;;9.80;91.93;101213.12;1709494;84;21141;-83
2021/09/29 02:57:35;;;;;;;7.50;4.40;;;;;;;9.81;92.01;101218.93;1708481;84;21200;-79
2021/09/29 03:00:40;;;;;;;18.05;5.72;;;;;;;9.81;92.08;101231.23;1708065;84;21339;-79
2021/09/29 03:03:46;;;;;;;6.53;4.30;;;;;;;9.81;92.20;101231.23;1708217;83;21181;-79
2021/09/29 03:06:52;;;;;;;9.18;5.08;;;;;;;9.84;92.22;101236.91;1709423;84;21263;-82
2021/09/29 03:09:57;;;;;;;13.35;5.70;;;;;;;9.85;92.14;101238.62;1709852;84;21303;-78
2021/09/29 03:13:03;;;;;;;12.28;5.60;;;;;;;9.89;92.04;101247.74;1708438;84;21342;-82
2021/09/29 03:16:10;;;;;;;8.98;4.95;;;;;;;9.92;91.86;101243.83;1709360;84;21726;-79
2021/09/29 03:19:15;;;;;;;13.95;5.78;;;;;;;9.92;91.75;101250.16;1708781;84;21303;-79
2021/09/29 03:22:20;;;;;;;10.82;6.03;;;;;;;9.93;91.68;101245.58;1708170;82;21745;-79
2021/09/29 03:25:25;;;;;;;13.78;5.62;;;;;;;9.90;91.67;101245.36;1684313;84;21316;-78
2021/09/29 03:28:31;;;;;;;15.03;5.83;;;;;;;9.91;91.75;101248.44;1709438;84;21731;-78
2021/09/29 03:31:35;;;;;;;16.20;6.10;;;;;;;9.90;91.72;101253.56;1709365;84;21307;-82
2021/09/29 03:34:41;;;;;;;10.82;5.80;;;;;;;9.88;91.76;101262.42;1680051;85;21450;-79
2021/09/29 03:37:48;;;;;;;13.95;6.03;;;;;;;9.87;91.88;101255.21;1679839;85;21215;-79
2021/09/29 03:40:54;;;;;;;11.97;6.28;;;;;;;9.89;91.92;101257.31;1681154;85;21160;-82
2021/09/29 03:44:00;;;;;;;12.07;5.67;;;;;;;9.90;91.91;101260.90;1698583;84;21331;-82
2021/09/29 03:47:04;;;;;;;10.70;5.35;;;;;;;9.91;91.85;101262.61;1707278;82;21189;-79
2021/09/29 03:50:10;;;;;;;11.65;5.62;;;;;;;9.94;91.83;101264.55;1705951;84;21170;-82
2021/09/29 03:53:15;;;;;;;15.85;6.60;;;;;;;9.97;91.69;101263.38;1705019;84;21228;-79
2021/09/29 03:56:21;;;;;;;12.95;5.58;;;;;;;9.96;91.51;101261.66;1725607;82;21263;-82
2021/09/29 03:59:26;;;;;;;11.78;5.55;;;;;;;9.95;91.51;101270.37;1729307;82;21159;-82
2021/09/29 04:02:31;;;;;;;13.55;5.60;;;;;;;9.93;91.45;101259.25;1720734;82;21170;-79
2021/09/29 04:05:38;;;;;;;10.48;5.00;;;;;;;9.93;91.49;101264.71;1722149;82;21296;-79
2021/09/29 04:08:43;;;;;;;15.32;5.10;;;;;;;9.95;91.40;101266.27;1724927;82;21719;-79
2021/09/29 04:11:49;;;;;;;20.77;5.87;;;;;;;9.96;91.33;101263.03;1719642;82;21193;-83
2021/09/29 04:14:54;;;;;;;13.08;4.78;;;;;;;9.99;91.21;101266.84;1720616;82;21301;-82
2021/09/29 04:17:59;;;;;;;10.10;4.80;;;;;;;10.02;91.05;101272.50;1719571;82;21312;-80
2021/09/29 04:21:05;;;;;;;14.83;5.67;;;;;;;10.02;90.87;101268.39;1732506;82;21806;-80
2021/09/29 04:24:11;;;;;;;16.00;5.37;;;;;;;10.04;90.83;101269.12;1736601;82;21339;-80
2021/09/29 04:27:20;;;;;;;11.50;4.67;;;;;;;10.07;90.66;101278.38;1731769;82;21237;-83
2021/09/29 04:30:25;;;;;;;10.45;4.65;;;;;;;10.08;90.46;101279.61;1736321;82;21331;-83
2021/09/29 04:33:30;;;;;;;11.35;4.28;;;;;;;10.08;90.31;101280.13;1736600;82;21299;-80
2021/09/29 04:36:36;;;;;;;12.78;5.00;;;;;;;10.09;90.28;101278.59;1736705;82;21323;-83
2021/09/29 04:39:41;;;;;;;6.33;4.33;;;;;;;10.08;90.16;101267.82;1734717;82;21185;-83
2021/09/29 04:42:49;;;;;;;8.45;4.50;;;;;;;10.10;90.01;101278.08;1736015;82;21359;-82
2021/09/29 04:45:54;;;;;;;9.75;5.30;;;;;;;10.11;89.80;101279.80;1731842;82;21355;-79
2021/09/29 04:48:59;;;;;;;12.43;4.83;;;;;;;10.14;89.62;101288.57;1715039;82;21183;-83
2021/09/29 04:52:04;;;;;;;7.70;4.53;;;;;;;10.15;89.43;101293.02;1723045;82;21328;-79
2021/09/29 04:55:11;;;;;;;11.08;4.53;;;;;;;10.17;89.10;101286.06;1729026;82;22367;-82
2021/09/29 04:58:18;;;;;;;17.95;5.35;;;;;;;10.18;88.82;101291.88;1720000;82;21656;-79
2021/09/29 05:01:25;;;;;;;9.55;4.17;;;;;;;10.18;88.58;101293.24;1721957;82;21244;-83
2021/09/29 05:04:29;;;;;;;12.03;5.45;;;;;;;10.21;88.35;101297.05;1721350;82;21319;-84
2021/09/29 05:07:34;;;;;;;11.70;5.03;;;;;;;10.23;87.87;101299.12;1723292;82;21334;-84
2021/09/29 05:10:50;;;;;;;12.10;5.37;;;;;;;10.25;87.84;101293.02;1733767;81;21181;-82
2021/09/29 05:13:56;;;;;;;8.58;4.95;;;;;;;10.26;87.44;101307.55;1731397;82;21229;-80
2021/09/29 05:17:02;;;;;;;15.08;5.05;;;;;;;10.28;87.20;101300.92;1728178;82;21218;-83
2021/09/29 05:20:07;;;;;;;9.10;4.58;;;;;;;10.31;86.79;101303.88;1718945;82;21821;-85
2021/09/29 05:23:12;;;;;;;9.20;5.15;;;;;;;10.31;86.82;101307.98;1720879;81;21161;-78
2021/09/29 05:26:17;;;;;;;16.70;7.45;;;;;;;10.34;86.78;101313.12;1696800;84;21271;-79
2021/09/29 05:29:24;;;;;;;11.75;6.25;;;;;;;10.34;85.85;101303.56;1669390;85;21682;-80
2021/09/29 05:32:30;;;;;;;12.90;5.60;;;;;;;10.30;85.66;101313.93;1700075;84;21283;-79
2021/09/29 05:35:35;;;;;;;9.25;6.78;;;;;;;10.28;85.84;101313.23;1667772;85;21294;-79
2021/09/29 05:38:41;;;;;;;13.35;6.20;;;;;;;10.31;85.89;101314.31;1696653;84;21912;-79
2021/09/29 05:41:47;;;;;;;12.03;6.55;;;;;;;10.30;85.68;101319.40;1659616;85;21270;-79
2021/09/29 05:44:52;;;;;;;11.25;5.60;;;;;;;10.33;85.85;101324.58;1695652;84;21291;-78
2021/09/29 05:47:58;;;;;;;11.20;6.22;;;;;;;10.35;85.98;101313.00;1640023;86;21778;-78
2021/09/29 05:51:03;;;;;;;13.15;7.35;;;;;;;10.43;85.81;101326.77;1649427;86;21665;-79
2021/09/29 05:54:17;;;;;;;17.25;7.53;;;;;;;10.49;85.34;101333.02;1651931;86;21543;-81
2021/09/29 05:57:23;;;;;;;13.83;6.47;;;;;;;10.54;84.78;101324.84;1650251;85;21332;-79
2021/09/29 06:00:27;;;;;;;12.25;6.80;;;;;;;10.57;84.24;101328.14;1648932;85;21286;-79
2021/09/29 06:03:32;;;;;;;15.10;7.08;;;;;;;10.55;84.14;101322.48;1640354;86;21315;-79
2021/09/29 06:06:38;;;;;;;11.53;5.90;;;;;;;10.53;84.07;101341.77;1649822;85;21227;-79
2021/09/29 06:09:44;;;;;;;14.47;6.87;;;;;;;10.54;84.18;101345.35;1662006;85;21346;-79
2021/09/29 06:12:50;;;;;;;15.63;7.03;;;;;;;10.52;84.13;101344.66;1697770;84;21601;-80
2021/09/29 06:15:55;;;;;;;12.88;7.33;;;;;;;10.54;84.15;101343.51;1691994;84;21159;-79
2021/09/29 06:19:00;;;;;;;11.55;6.65;;;;;;;10.59;83.88;101345.80;1636964;87;21197;-83
2021/09/29 06:22:05;;;;;;;12.70;6.37;;;;;;;10.66;83.97;101352.36;1696536;84;21880;-83
2021/09/29 06:25:10;;;;;;;18.45;7.12;;;;;;;10.75;83.40;101362.41;1647872;85;21316;-83
2021/09/29 06:28:15;;;;;;;10.75;6.67;;;;;;;10.79;82.74;101363.83;1680868;85;21346;-83
2021/09/29 06:31:20;;;;;;;16.35;6.67;;;;;;;10.75;82.16;101359.66;1678561;85;21311;-83
2021/09/29 06:34:26;;;;;;;9.73;6.12;;;;;;;10.78;82.53;101364.84;1707815;83;21824;-80
2021/09/29 06:37:38;;;;;;;15.85;6.92;;;;;;;10.81;82.16;101360.41;1701518;83;21480;-79
2021/09/29 06:40:38;;;;;;;10.43;6.95;;;;;;;10.86;82.07;101363.55;1676623;85;21336;-80
2021/09/29 06:43:43;;;;;;;11.83;7.92;;;;;;;10.89;81.53;101381.05;1710224;83;21279;-80
2021/09/29 06:46:48;;;;;;;11.60;6.37;;;;;;;10.93;81.01;101372.89;1704566;83;21305;-79
2021/09/29 06:49:55;;;;;;;10.85;7.47;;;;;;;10.92;80.94;101371.69;1671464;85;21644;-80
2021/09/29 06:53:01;;;;;;;16.82;7.05;;;;;;;10.93;80.55;101369.30;1705338;83;21236;-80
2021/09/29 06:56:07;;;;;;;17.90;7.75;;;;;;;10.92;80.64;101376.65;1692955;82;21159;-80
2021/09/29 06:59:13;;;;;;;12.58;7.33;;;;;;;10.99;80.46;101376.89;1709930;83;21288;-80
2021/09/29 07:02:17;;;;;;;11.48;7.08;;;;;;;11.03;80.05;101375.57;1707676;82;21275;-81
2021/09/29 07:05:25;;;;;;;14.38;6.30;;;;;;;11.06;80.14;101375.79;1708545;82;21611;-81
2021/09/29 07:08:31;;;;;;;15.13;7.03;;;;;;;11.09;79.92;101390.01;1689732;82;21892;-80
2021/09/29 07:11:36;;;;;;;8.85;6.28;;;;;;;11.15;79.75;101389.89;1686045;83;21365;-80
2021/09/29 07:14:43;;;;;;;9.48;6.30;;;;;;;11.23;79.62;101379.89;1693161;82;21274;-80
2021/09/29 07:17:51;;;;;;;18.65;7.05;;;;;;;11.32;79.01;101379.48;1675658;85;21159;-80
2021/09/29 07:21:01;;;;;;;12.05;6.20;;;;;;;11.34;78.30;101374.72;1710000;82;21785;-81
2021/09/29 07:24:07;;;;;;;14.95;7.47;;;;;;;11.38;78.29;101378.84;1708209;82;21296;-81
2021/09/29 07:27:13;;;;;;;14.53;5.95;;;;;;;11.44;78.08;101388.34;1693526;83;21340;-82
2021/09/29 07:30:20;;;;;;;13.78;6.53;;;;;;;11.42;77.57;101383.00;1712377;82;21286;-82
2021/09/29 07:33:26;;;;;;;11.18;5.55;;;;;;;11.44;77.60;101378.25;1686697;84;21402;-81
2021/09/29 07:36:31;;;;;;;7.92;5.70;;;;;;;11.51;77.46;101377.95;1709937;83;21835;-81
2021/09/29 07:39:37;;;;;;;8.85;6.17;;;;;;;11.60;76.84;101382.16;1689387;83;21178;-82
2021/09/29 07:42:43;;;;;;;11.43;6.08;;;;;;;11.61;76.51;101385.23;1708722;82;21169;-81
2021/09/29 07:45:49;;;;;;;11.38;5.50;;;;;;;11.61;76.72;101382.50;1689894;84;21727;-81
2021/09/29 07:48:57;;;;;;;15.10;5.80;;;;;;;11.69;76.33;101388.06;1714907;83;21208;-81
2021/09/29 07:52:03;;;;;;;9.33;5.60;;;;;;;11.71;76.03;101376.42;1709480;83;21422;-81
2021/09/29 07:55:08;;;;;;;13.62;6.70;;;;;;;11.76;75.82;101391.88;1692782;84;21548;-81
2021/09/29 07:58:14;;;;;;;12.45;5.25;;;;;;;11.77;75.82;101388.14;1698618;82;21656;-81
2021/09/29 08:01:20;;;;;;;12.25;5.47;;;;;;;11.76;75.41;101398.25;1672174;84;21327;-81
2021/09/29 08:04:30;;;;;;;10.63;5.90;;;;;;;11.72;75.29;101396.84;1710907;83;21270;-81
2021/09/29 08:07:42;;;;;;;18.35;6.75;;;;;;;11.72;75.33;101400.09;1675754;85;21174;-80
2021/09/29 08:10:47;;;;;;;18.90;5.80;;;;;;;11.77;75.43;101404.08;1675419;85;21236;-81
2021/09/29 08:13:52;;;;;;;12.98;5.72;;;;;;;11.83;74.84;101401.75;1738434;82;21189;-81
2021/09/29 08:16:59;;;;;;;11.80;5.60;;;;;;;11.80;74.41;101404.25;1740638;82;21295;-80
2021/09/29 08:20:08;;;;;;;15.75;4.97;;;;;;;11.82;74.16;101408.23;1737155;82;21188;-83
2021/09/29 08:23:22;;;;;;;9.15;5.08;;;;;;;11.88;73.71;101424.92;1740960;82;21204;-80
2021/09/29 08:29:48;;;;;;;15.68;5.65;;;;;;;11.87;73.68;101410.88;1733780;81;21260;-81
2021/09/29 08:33:00;;;;;;;7.95;4.97;;;;;;;11.97;73.80;101418.50;1731171;82;21211;-81
2021/09/29 08:35:58;;;;;;;10.58;5.20;;;;;;;12.08;72.74;101420.63;1729009;82;21251;-81
2021/09/29 08:39:14;;;;;;;11.43;4.95;;;;;;;12.07;72.26;101412.06;1713482;82;21319;-81
2021/09/29 08:42:23;;;;;;;6.45;5.08;;;;;;;12.13;71.99;101415.02;1729182;82;21181;-82
2021/09/29 08:45:30;;;;;;;7.87;4.62;;;;;;;12.23;71.50;101425.88;1714877;82;21204;-81
2021/09/29 08:48:40;;;;;;;8.03;5.22;;;;;;;12.26;71.00;101417.34;1725687;82;21381;-82
2021/09/29 08:52:08;;;;;;;10.00;5.15;;;;;;;12.25;70.98;101427.98;1720349;82;21335;-82
2021/09/29 09:15:56;;;;;;;6.95;4.83;;;;;;;12.68;70.09;101409.20;1726445;82;21416;-83
2021/09/29 09:19:04;;;;;;;9.60;5.20;;;;;;;12.83;69.40;101405.84;1730123;82;21350;-84
2021/09/29 09:22:13;;;;;;;9.08;4.83;;;;;;;12.91;68.18;101407.27;1722620;82;21881;-82
2021/09/29 09:25:17;;;;;;;9.53;5.30;;;;;;;12.94;68.43;101415.19;1728588;82;21841;-82
2021/09/29 09:28:34;;;;;;;12.07;5.33;;;;;;;13.00;68.24;101409.87;1725545;82;21317;-83
2021/09/29 09:31:42;;;;;;;11.65;5.75;;;;;;;13.07;68.41;101409.20;1728586;82;21829;-82
2021/09/29 09:34:50;;;;;;;11.25;5.08;;;;;;;13.10;67.61;101415.75;1728511;82;22103;-82
2021/09/29 09:37:59;;;;;;;8.00;4.75;;;;;;;13.03;67.64;101421.92;1727714;82;21335;-83
2021/09/29 09:41:10;;;;;;;9.98;4.92;;;;;;;13.04;67.59;101418.14;1729215;82;21165;-81
2021/09/29 09:44:09;;;;;;;6.75;4.40;;;;;;;13.10;66.90;101417.13;1726217;82;21573;-81
2021/09/29 09:47:21;;;;;;;15.40;5.90;;;;;;;13.08;67.09;101423.28;1703048;82;21315;-82
2021/09/29 09:50:34;;;;;;;10.72;5.28;;;;;;;13.08;66.84;101420.53;1730825;82;21674;-82
2021/09/29 09:53:42;;;;;;;11.60;5.25;;;;;;;13.08;66.86;101419.16;1724212;82;21273;-81
2021/09/29 09:56:52;;;;;;;10.50;5.22;;;;;;;13.09;66.79;101414.04;1723974;82;21702;-82
2021/09/29 10:00:02;;;;;;;6.53;4.60;;;;;;;13.13;66.43;101397.58;1731070;82;21256;-82
2021/09/29 10:03:11;;;;;;;13.10;5.47;;;;;;;13.21;66.35;101409.94;1725931;81;21264;-83
2021/09/29 10:06:17;;;;;;;15.98;5.30;;;;;;;13.30;66.05;101409.83;1728316;81;21241;-82
2021/09/29 10:09:29;;;;;;;9.23;5.50;;;;;;;13.44;66.03;101401.45;1705630;82;21687;-82
2021/09/29 10:23:13;;;;;;;7.85;5.70;;;;;;;13.69;64.05;101395.50;1728257;82;21193;-81
2021/09/29 10:26:26;;;;;;;13.83;6.17;;;;;;;13.79;63.97;101399.45;1726284;82;21162;-82
2021/09/29 10:29:31;;;;;;;14.33;5.55;;;;;;;13.76;63.79;101397.04;1727902;82;21385;-82
2021/09/29 10:32:52;;;;;;;9.88;5.17;;;;;;;13.70;64.29;101390.86;1724818;82;21198;-82
2021/09/29 10:43:04;;;;;;;10.72;5.65;;;;;;;13.89;63.53;101393.27;1711416;82;21245;-81
2021/09/29 10:46:16;;;;;;;10.15;5.78;;;;;;;13.97;63.20;101391.91;1701264;82;21156;-81
2021/09/29 10:49:36;;;;;;;11.88;5.58;;;;;;;13.96;62.37;101390.67;1679645;84;21300;-81
2021/09/29 11:03:35;;;;;;;13.08;5.58;;;;;;;13.70;62.54;101394.98;1714289;83;21303;-81
2021/09/29 11:30:25;;;;;;;9.03;5.30;;;;;;;13.49;62.61;101397.68;1672822;85;21223;-80
2021/09/29 11:36:59;;;;;;;7.25;5.22;;;;;;;13.58;62.01;101393.06;1725175;82;21516;-80
2021/09/29 12:07:57;;;;;;;14.73;5.55;;;;;;;13.86;60.59;101399.62;1727083;82;21850;-81
2021/09/29 12:08:06;;;;;;;9.10;5.17;;;;;;;13.60;60.51;101388.76;1720108;82;21288;-81
2021/09/29 12:11:10;;;;;;;12.07;5.08;;;;;;;13.53;60.48;101396.31;1726798;81;21788;-84
2021/09/29 12:14:26;;;;;;;8.60;4.55;;;;;;;13.53;59.78;101415.56;1724774;82;21280;-81
2021/09/29 12:17:34;;;;;;;8.48;5.22;;;;;;;13.48;59.57;101400.61;1732631;82;21748;-81
2021/09/29 12:20:41;;;;;;;7.30;4.50;;;;;;;13.46;59.97;101397.19;1676915;84;21313;-81
2021/09/29 12:23:59;;;;;;;7.72;4.97;;;;;;;13.58;58.94;101398.56;1667583;85;21308;-84
2021/09/29 12:27:04;;;;;;;11.57;5.53;;;;;;;13.61;59.11;101396.00;1697876;83;21206;-80
2021/09/29 12:30:34;;;;;;;9.00;5.80;;;;;;;13.63;60.21;101406.30;1673678;84;21327;-80
2021/09/29 12:36:56;;;;;;;8.45;5.33;;;;;;;13.41;60.33;101400.44;1687681;84;21387;-84
2021/09/29 12:43:27;;;;;;;11.10;5.42;;;;;;;13.37;60.24;101404.55;1832120;76;22239;-79
2021/09/29 12:46:35;;;;;;;8.43;5.12;;;;;;;13.33;60.28;101406.42;1788059;79;21269;-77
2021/09/29 12:49:40;;;;;;;10.82;4.87;;;;;;;13.32;60.60;101398.70;1796903;79;21561;-77
2021/09/29 12:52:55;;;;;;;7.00;4.83;;;;;;;13.33;60.51;101392.16;1786214;79;21253;-77
2021/09/29 12:55:58;;;;;;;13.98;4.65;;;;;;;13.33;60.51;101388.05;1809137;79;21129;-77
2021/09/29 12:59:01;;;;;;;10.60;4.37;;;;;;;13.34;60.38;101393.88;1812816;79;21287;-77
2021/09/29 13:02:05;;;;;;;8.53;3.90;;;;;;;13.31;60.46;101396.95;1753398;80;21811;-77
2021/09/29 13:05:11;;;;;;;11.35;4.28;;;;;;;13.22;61.00;101406.19;1783997;80;21239;-77
2021/09/29 13:08:16;;;;;;;5.90;3.85;;;;;;;13.18;60.80;101407.55;1760294;80;21149;-77
2021/09/29 13:11:21;;;;;;;5.37;3.70;;;;;;;13.11;60.98;101403.22;1773473;80;21619;-76
2021/09/29 13:14:27;;;;;;;9.35;4.33;;;;;;;13.01;61.54;101407.99;1784345;80;21216;-77
2021/09/29 13:17:31;;;;;;;6.33;4.20;;;;;;;12.92;61.76;101398.85;1777836;80;21345;-77
2021/09/29 13:20:38;;;;;;;9.28;4.75;;;;;;;12.81;61.60;101408.77;1770198;80;21347;-77
2021/09/29 13:27:24;;;;;;;7.60;4.08;;;;;;;12.67;62.02;101411.61;1745570;82;21208;-78
2021/09/29 13:37:03;;;;;;;9.18;4.90;;;;;;;12.62;62.23;101410.39;1769572;81;21429;-77
2021/09/29 13:40:08;;;;;;;6.47;4.22;;;;;;;12.62;62.04;101414.50;1766991;81;21289;-77
2021/09/29 13:43:13;;;;;;;8.23;4.35;;;;;;;12.61;60.37;101408.64;1779495;79;21777;-77
2021/09/29 13:46:19;;;;;;;9.20;4.72;;;;;;;12.57;60.14;101399.03;1777042;80;21818;-77
2021/09/29 13:49:24;;;;;;;12.28;5.37;;;;;;;12.58;59.42;101409.84;1777057;80;21282;-78
2021/09/29 13:52:30;;;;;;;12.33;4.65;;;;;;;12.57;58.38;101402.64;1776759;80;21290;-77
2021/09/29 13:55:35;;;;;;;6.80;4.58;;;;;;;12.51;57.98;101405.53;1776142;81;21306;-77
2021/09/29 14:29:08;;;;;;;11.45;4.08;;;;;;;12.00;59.77;101420.94;1777131;81;21168;-77
2021/09/29 14:32:20;;;;;;;7.92;3.58;;;;;;;12.03;60.74;101434.30;1775167;81;21878;-77
2021/09/29 14:35:22;;;;;;;6.92;3.52;;;;;;;12.01;61.33;101421.79;1776741;81;21326;-76
2021/09/29 14:38:29;;;;;;;5.95;3.50;;;;;;;11.97;61.57;101438.20;1776500;81;21286;-76
2021/09/29 14:41:35;;;;;;;5.85;3.02;;;;;;;11.88;61.44;101441.89;1777351;81;21189;-77
2021/09/29 14:44:47;;;;;;;5.50;3.62;;;;;;;11.76;61.57;101446.22;1779212;79;21770;-76
2021/09/29 14:47:50;;;;;;;8.55;4.92;;;;;;;11.66;61.99;101448.14;1783242;80;21255;-76
2021/09/29 14:50:56;;;;;;;9.83;4.47;;;;;;;11.56;62.38;101442.39;1782368;80;21302;-76
2021/09/29 14:54:02;;;;;;;10.70;5.42;;;;;;;11.44;62.81;101445.37;1781650;80;22008;-76
2021/09/29 14:57:10;;;;;;;13.53;7.53;;;;;;;11.34;63.16;101455.53;1783103;80;21338;-77
2021/09/29 15:00:15;;;;;;;11.53;6.50;;;;;;;11.26;63.33;101443.10;1782071;80;21227;-77
2021/09/29 15:03:22;;;;;;;8.40;4.62;;;;;;;11.20;63.46;101456.05;1783287;80;21171;-78
2021/09/29 15:06:28;;;;;;;10.68;4.40;;;;;;;11.14;63.43;101456.12;1782628;80;21302;-78
2021/09/29 15:09:34;;;;;;;6.53;4.00;;;;;;;11.10;63.66;101451.10;1782295;80;21361;-78
2021/09/29 15:12:40;;;;;;;4.85;3.77;;;;;;;11.05;63.83;101454.30;1782409;80;21278;-78
2021/09/29 15:15:58;;;;;;;7.03;3.33;;;;;;;11.04;64.12;101454.45;1780902;80;21179;-77
2021/09/29 15:19:12;;;;;;;8.88;3.70;;;;;;;10.97;64.37;101460.55;1782206;80;21310;-77
2021/09/29 15:48:43;;;;;;;7.85;3.80;;;;;;;10.48;65.77;101484.45;1776553;81;21172;-78
2021/09/29 15:55:01;;;;;;;10.00;4.83;;;;;;;10.32;66.01;101493.78;1775689;81;21212;-78
2021/09/29 16:01:11;;;;;;;15.48;6.95;;;;;;;10.16;66.57;101501.66;1775777;81;21948;-78
2021/09/29 16:07:46;;;;;;;11.43;7.15;;;;;;;9.99;67.18;101508.23;1776608;81;21941;-77
2021/09/29 16:14:20;;;;;;;23.98;7.30;;;;;;;9.82;67.74;101517.63;1774938;81;21174;-78
2021/09/29 16:30:31;;;;;;;12.78;7.12;;;;;;;9.44;69.11;101524.23;1776552;81;21825;-78
2021/09/29 16:36:53;;;;;;;;;;;;;;;9.37;69.60;101528.55;1780120;81;21148;-77
2021/09/29 16:39:59;;;;;;;15.68;8.58;;;;;;;9.37;69.71;101532.64;1776508;81;20276;-77
2021/09/29 16:43:05;;;;;;;22.52;9.53;;;;;;;9.36;69.70;101532.28;1775061;81;21291;-77
2021/09/29 16:46:13;;;;;;;15.18;8.33;;;;;;;9.35;69.68;101540.09;1778039;79;21318;-77
2021/09/29 16:49:23;;;;;;;20.12;8.90;;;;;;;9.34;69.67;101537.51;1782176;80;21283;-77
2021/09/29 16:52:29;;;;;;;14.55;6.95;;;;;;;9.33;69.63;101540.75;1780660;80;21290;-77
2021/09/29 16:55:33;;;;;;;14.55;6.45;;;;;;;9.31;69.59;101544.09;1780921;80;21814;-77
2021/09/29 17:01:44;;;;;;;12.60;6.25;;;;;;;9.29;69.59;101547.98;1780814;80;21361;-77
2021/09/29 17:04:51;;;;;;;15.83;6.40;;;;;;;9.27;69.71;101546.77;1782094;80;21338;-77
2021/09/29 17:07:55;;;;;;;12.00;6.37;;;;;;;9.26;69.88;101542.28;1780729;80;21849;-78
2021/09/29 17:11:01;;;;;;;10.58;5.62;;;;;;;9.26;70.00;101551.84;1780862;80;21290;-77
2021/09/29 17:14:08;;;;;;;10.40;5.90;;;;;;;9.29;70.11;101554.81;1782244;80;21168;-77
2021/09/29 17:17:14;;;;;;;12.90;6.22;;;;;;;9.28;70.22;101549.86;1782166;80;21286;-77
2021/09/29 17:20:20;;;;;;;11.80;7.03;;;;;;;9.28;70.30;101563.51;1782062;80;21290;-77
2021/09/29 17:23:25;;;;;;;13.20;6.50;;;;;;;9.26;70.58;101564.12;1782227;80;21275;-77
2021/09/29 17:26:31;;;;;;;12.70;6.62;;;;;;;9.24;70.81;101564.78;1781154;80;21849;-77
2021/09/29 17:29:37;;;;;;;12.13;6.80;;;;;;;9.20;70.97;101565.55;1782407;80;21289;-78
2021/09/29 17:39:33;;;;;;;9.95;5.60;;;;;;;9.09;71.82;101575.70;1781037;80;21291;-77
2021/09/29 17:52:43;;;;;;;8.23;5.20;;;;;;;9.09;73.01;101574.34;1775252;81;21318;-77
2021/09/29 17:55:49;;;;;;;9.88;5.22;;;;;;;9.10;73.09;101578.29;1775658;81;21176;-77
2021/09/29 17:58:54;;;;;;;10.78;5.72;;;;;;;9.14;73.12;101574.80;1775287;81;21172;-77
2021/09/29 18:02:07;;;;;;;11.97;6.58;;;;;;;9.14;73.17;101570.20;1775112;81;21314;-77
2021/09/29 18:05:11;;;;;;;18.10;5.95;;;;;;;9.15;73.28;101576.52;1775144;81;21275;-77
2021/09/29 18:08:14;;;;;;;7.87;5.33;;;;;;;9.16;73.33;101568.69;1775514;81;21287;-77
2021/09/29 18:11:19;;;;;;;12.70;5.50;;;;;;;9.17;73.41;101570.41;1776613;81;21337;-77
2021/09/29 18:14:27;;;;;;;12.05;5.10;;;;;;;9.15;73.49;101565.09;1775109;81;21207;-77